WetterOnline ( https://www.wetteronline.de )

Wetter aktuell Aura

Aktuelles Wetter: Bad Kissingen (266m)

6-stündlich | Neueste Meldungen
Ortszeit Temperatur Wetter
Di, 23.04. 14:00 8.7° C wolkenlos
Di, 23.04. 8:00 -0.2° C wolkenlos
Di, 23.04. 2:00 -1.4° C wolkenlos
Mo, 22.04. 20:00 5.3° C bewölkt
Mo, 22.04. 14:00 5.3° C bedeckt
Mo, 22.04. 8:00 0.4° C wolkenlos
Mo, 22.04. 2:00 -0.1° C wolkenlos
So, 21.04. 20:00 5.0° C bewölkt
Ortszeit Temperatur Wetter
Di, 23.04. 16:00 9.9° C leicht bewölkt
Di, 23.04. 15:50 9.9° C leicht bewölkt
Di, 23.04. 15:40 9.2° C leicht bewölkt
Di, 23.04. 15:30 9.4° C leicht bewölkt
Di, 23.04. 15:20 9.4° C leicht bewölkt
Di, 23.04. 15:10 9.9° C leicht bewölkt
Di, 23.04. 15:00 9.3° C leicht bewölkt
Di, 23.04. 14:30 9.0° C leicht bewölkt
Di, 23.04. 14:00 8.7° C wolkenlos
Di, 23.04. 13:30 8.6° C fast wolkenlos
Di, 23.04. 13:00 8.0° C wolkenlos
Ortszeit Relative Feuchte Sichtweite
Di, 23.04. 14:00 39% 35 km
Di, 23.04. 8:00 75% >70 km
Di, 23.04. 2:00 86% 45 km
Mo, 22.04. 20:00 57% >70 km
Mo, 22.04. 14:00 67% 50 km
Mo, 22.04. 8:00 84% 30 km
Mo, 22.04. 2:00 82% 50 km
So, 21.04. 20:00 60% 65 km
Ortszeit Relative Feuchte Sichtweite
Di, 23.04. 16:00 34% >70 km
Di, 23.04. 15:50 34% -
Di, 23.04. 15:40 35% -
Di, 23.04. 15:30 36% >70 km
Di, 23.04. 15:20 36% -
Di, 23.04. 15:10 33% -
Di, 23.04. 15:00 40% 60 km
Di, 23.04. 14:30 40% 45 km
Di, 23.04. 14:00 39% 35 km
Di, 23.04. 13:30 44% 60 km
Di, 23.04. 13:00 44% >70 km
Ortszeit Niederschlagsmenge Niederschlagsart
Di, 23.04. 14:00 0.0 l/m2 in 6 Std. -
Di, 23.04. 8:00 0.0 l/m2 in 12 Std. -
Di, 23.04. 2:00 0.0 l/m2 in 6 Std. -
Mo, 22.04. 20:00 0.1 l/m2 in 12 Std. Regen, Niederschlag
Mo, 22.04. 14:00 0.1 l/m2 in 6 Std. Regen
Mo, 22.04. 8:00 0.0 l/m2 in 12 Std. -
Mo, 22.04. 2:00 0.0 l/m2 in 6 Std. -
So, 21.04. 20:00 2 l/m2 in 12 Std. Regen
Ortszeit Niederschlagsmenge Niederschlagsart
Di, 23.04. 16:00 0.0 l/m2 in 1 Std. -
Di, 23.04. 15:50 keine Meldung -
Di, 23.04. 15:40 keine Meldung -
Di, 23.04. 15:30 0.0 l/m2 in 30 Min -
Di, 23.04. 15:20 keine Meldung -
Di, 23.04. 15:10 keine Meldung -
Di, 23.04. 15:00 0.0 l/m2 in 1 Std. -
Di, 23.04. 14:30 0.0 l/m2 in 30 Min -
Di, 23.04. 14:00 0.0 l/m2 in 1 Std. -
Di, 23.04. 13:30 0.0 l/m2 in 30 Min -
Di, 23.04. 13:00 0.0 l/m2 in 1 Std. -
Ortszeit Stärke Spitze Richtung
km/h Bft. km/h Grad Sektor
Di, 23.04. 14:00 7 2 25 300° NW
Di, 23.04. 8:00 6 1 9 350° N
Di, 23.04. 2:00 7 2 11 10° N
Mo, 22.04. 20:00 6 1 30 110° O
Mo, 22.04. 14:00 9 2 28 150° SO
Mo, 22.04. 8:00 0 0 11 - -
Mo, 22.04. 2:00 6 1 26 60° NO
So, 21.04. 20:00 14 3 40 20° N
Ortszeit Stärke Spitze Richtung
km/h Bft. km/h Grad Sektor
Di, 23.04. 16:00 7 2 18 40° NO
Di, 23.04. 15:50 7 2 - 40° NO
Di, 23.04. 15:40 11 2 - 80° O
Di, 23.04. 15:30 7 2 14 90° O
Di, 23.04. 15:20 7 2 - 90° O
Di, 23.04. 15:10 7 2 - 120° SO
Di, 23.04. 15:00 9 2 19 140° SO
Di, 23.04. 14:30 11 2 18 30° NO
Di, 23.04. 14:00 7 2 22 300° NW
Di, 23.04. 13:30 6 1 20 60° NO
Di, 23.04. 13:00 6 1 24 350° N
Ortszeit Untergrenze Bedeckung Gattung
total tief tief mittel hoch
Di, 23.04. 14:00 - 0/8 0/8 - - -
Di, 23.04. 8:00 - 0/8 0/8 - - -
Di, 23.04. 2:00 - 0/8 0/8 - - -
Mo, 22.04. 20:00 1800 m 7/8 7/8 - - -
Mo, 22.04. 14:00 780 m 8/8 8/8 - - -
Mo, 22.04. 8:00 - 0/8 0/8 - - -
Mo, 22.04. 2:00 - 0/8 0/8 - - -
So, 21.04. 20:00 1440 m 7/8 7/8 - - -
Ortszeit Bedeckungsgrad in Achtel und Wolkenuntergrenze
Di, 23.04. 16:00 3(8700m)
Di, 23.04. 15:50 3(8700m)
Di, 23.04. 15:40 2
Di, 23.04. 15:30 2(1800m) 3(8100m)
Di, 23.04. 15:20 2(1800m) 3(8100m)
Di, 23.04. 15:10 4
Di, 23.04. 15:00 3(8100m)
Di, 23.04. 14:30 1(1500m)
Di, 23.04. 14:00 keine Wolken
Di, 23.04. 13:30 1(1500m)
Di, 23.04. 13:00 keine Wolken
Ortszeit Luftdruck NN (hPa) Tendenz (hPa in 3 Std.)
Di, 23.04. 14:00 1017 - 2,3
Di, 23.04. 8:00 1021 - 0,2
Di, 23.04. 2:00 1023 - 0,3
Mo, 22.04. 20:00 1021 - 0,4
Mo, 22.04. 14:00 1023 - 0,5
Mo, 22.04. 8:00 1024 0,0
Mo, 22.04. 2:00 1025 + 0,4
So, 21.04. 20:00 1022 + 1,6
Ortszeit Luftdruck NN (hPa) Tendenz (hPa in 3 Std.)
Di, 23.04. 16:00 1016 - 2,3
Di, 23.04. 15:50 1016 keine Meldung
Di, 23.04. 15:40 1016 keine Meldung
Di, 23.04. 15:30 1016 - 2,2
Di, 23.04. 15:20 1016 keine Meldung
Di, 23.04. 15:10 1016 keine Meldung
Di, 23.04. 15:00 1016 - 2,4
Di, 23.04. 14:30 1017 - 2,4
Di, 23.04. 14:00 1017 - 2,3
Di, 23.04. 13:30 1018 - 2,0
Di, 23.04. 13:00 1018 - 1,7
Ortszeit Schneehöhe (cm)
Di, 23.04. 14:00 0
Di, 23.04. 8:00 0
Di, 23.04. 2:00 0
Mo, 22.04. 20:00 0
Mo, 22.04. 14:00 0
Mo, 22.04. 8:00 0
Mo, 22.04. 2:00 0
So, 21.04. 20:00 0
Ortszeit Schneehöhe (cm)
Di, 23.04. 16:00 0
Di, 23.04. 15:50 0
Di, 23.04. 15:40 -
Di, 23.04. 15:30 0
Di, 23.04. 15:20 0
Di, 23.04. 15:10 -
Di, 23.04. 15:00 0
Di, 23.04. 14:30 0
Di, 23.04. 14:00 0
Di, 23.04. 13:30 0
Di, 23.04. 13:00 0
Link zu dieser Seite / Seite empfehlen

Das Wetter in ...